sensor_id;sensor_type;location;lat;lon;timestamp;P1;durP1;ratioP1;P2;durP2;ratioP2
44304;SDS011;30019;50.576;8.568;2023-02-01T00:01:20;15.70;;;6.28;;
44304;SDS011;30019;50.576;8.568;2023-02-01T00:03:45;20.15;;;6.35;;
44304;SDS011;30019;50.576;8.568;2023-02-01T00:06:11;13.00;;;5.35;;
44304;SDS011;30019;50.576;8.568;2023-02-01T00:08:36;19.27;;;6.62;;
44304;SDS011;30019;50.576;8.568;2023-02-01T00:11:06;14.77;;;6.93;;
44304;SDS011;30019;50.576;8.568;2023-02-01T00:13:35;15.35;;;8.57;;
44304;SDS011;30019;50.576;8.568;2023-02-01T00:16:09;13.73;;;7.70;;
44304;SDS011;30019;50.576;8.568;2023-02-01T00:18:35;15.73;;;7.87;;
44304;SDS011;30019;50.576;8.568;2023-02-01T00:21:01;16.48;;;8.65;;
44304;SDS011;30019;50.576;8.568;2023-02-01T00:23:27;19.60;;;9.70;;
44304;SDS011;30019;50.576;8.568;2023-02-01T00:25:52;14.85;;;9.15;;
44304;SDS011;30019;50.576;8.568;2023-02-01T00:28:18;15.95;;;9.23;;
44304;SDS011;30019;50.576;8.568;2023-02-01T00:30:44;22.25;;;10.15;;
44304;SDS011;30019;50.576;8.568;2023-02-01T00:33:10;20.42;;;9.20;;
44304;SDS011;30019;50.576;8.568;2023-02-01T00:35:35;17.35;;;9.27;;
44304;SDS011;30019;50.576;8.568;2023-02-01T00:38:01;16.35;;;10.55;;
44304;SDS011;30019;50.576;8.568;2023-02-01T00:40:27;26.30;;;12.00;;
44304;SDS011;30019;50.576;8.568;2023-02-01T00:42:53;16.25;;;9.00;;
44304;SDS011;30019;50.576;8.568;2023-02-01T00:45:19;17.98;;;9.05;;
44304;SDS011;30019;50.576;8.568;2023-02-01T00:47:44;20.37;;;9.52;;
44304;SDS011;30019;50.576;8.568;2023-02-01T00:50:10;17.23;;;9.40;;
44304;SDS011;30019;50.576;8.568;2023-02-01T00:52:36;16.83;;;9.25;;
44304;SDS011;30019;50.576;8.568;2023-02-01T00:55:01;17.90;;;9.70;;
44304;SDS011;30019;50.576;8.568;2023-02-01T00:57:27;14.05;;;9.77;;
44304;SDS011;30019;50.576;8.568;2023-02-01T00:59:53;19.30;;;9.75;;
44304;SDS011;30019;50.576;8.568;2023-02-01T01:02:18;13.80;;;8.43;;
44304;SDS011;30019;50.576;8.568;2023-02-01T01:04:44;22.67;;;9.85;;
44304;SDS011;30019;50.576;8.568;2023-02-01T01:07:09;24.80;;;10.30;;
44304;SDS011;30019;50.576;8.568;2023-02-01T01:09:35;16.50;;;9.25;;
44304;SDS011;30019;50.576;8.568;2023-02-01T01:12:01;17.75;;;9.07;;
44304;SDS011;30019;50.576;8.568;2023-02-01T01:14:28;20.67;;;9.48;;
44304;SDS011;30019;50.576;8.568;2023-02-01T01:16:54;17.17;;;10.30;;
44304;SDS011;30019;50.576;8.568;2023-02-01T01:19:19;15.18;;;9.18;;
44304;SDS011;30019;50.576;8.568;2023-02-01T01:21:45;15.60;;;8.98;;
44304;SDS011;30019;50.576;8.568;2023-02-01T01:24:11;17.10;;;9.73;;
44304;SDS011;30019;50.576;8.568;2023-02-01T01:26:36;19.50;;;8.98;;
44304;SDS011;30019;50.576;8.568;2023-02-01T01:29:02;15.25;;;8.68;;
44304;SDS011;30019;50.576;8.568;2023-02-01T01:31:28;16.42;;;9.90;;
44304;SDS011;30019;50.576;8.568;2023-02-01T01:33:56;28.10;;;11.75;;
44304;SDS011;30019;50.576;8.568;2023-02-01T01:36:23;18.80;;;10.60;;
44304;SDS011;30019;50.576;8.568;2023-02-01T01:38:50;15.60;;;10.52;;
44304;SDS011;30019;50.576;8.568;2023-02-01T01:41:22;22.13;;;10.80;;
44304;SDS011;30019;50.576;8.568;2023-02-01T01:44:00;18.73;;;11.00;;
44304;SDS011;30019;50.576;8.568;2023-02-01T01:46:33;22.73;;;11.55;;
44304;SDS011;30019;50.576;8.568;2023-02-01T01:51:42;20.15;;;11.50;;
44304;SDS011;30019;50.576;8.568;2023-02-01T01:54:35;19.73;;;10.45;;
44304;SDS011;30019;50.576;8.568;2023-02-01T01:57:22;17.37;;;10.73;;
44304;SDS011;30019;50.576;8.568;2023-02-01T02:00:00;20.75;;;10.63;;
44304;SDS011;30019;50.576;8.568;2023-02-01T02:02:33;17.17;;;11.02;;
44304;SDS011;30019;50.576;8.568;2023-02-01T02:05:00;20.10;;;11.48;;
44304;SDS011;30019;50.576;8.568;2023-02-01T02:07:28;18.98;;;10.82;;
44304;SDS011;30019;50.576;8.568;2023-02-01T02:09:57;18.02;;;10.20;;
44304;SDS011;30019;50.576;8.568;2023-02-01T02:12:23;24.00;;;10.30;;
44304;SDS011;30019;50.576;8.568;2023-02-01T02:14:48;18.60;;;10.77;;
44304;SDS011;30019;50.576;8.568;2023-02-01T02:17:21;18.45;;;10.45;;
44304;SDS011;30019;50.576;8.568;2023-02-01T02:28:05;16.33;;;9.95;;
44304;SDS011;30019;50.576;8.568;2023-02-01T02:31:00;15.85;;;9.15;;
44304;SDS011;30019;50.576;8.568;2023-02-01T02:39:48;12.77;;;7.28;;
44304;SDS011;30019;50.576;8.568;2023-02-01T02:42:18;19.85;;;8.55;;
44304;SDS011;30019;50.576;8.568;2023-02-01T02:45:17;15.45;;;8.65;;
44304;SDS011;30019;50.576;8.568;2023-02-01T02:51:15;20.62;;;8.00;;
44304;SDS011;30019;50.576;8.568;2023-02-01T02:54:10;15.82;;;8.25;;
44304;SDS011;30019;50.576;8.568;2023-02-01T02:57:02;19.65;;;8.25;;
44304;SDS011;30019;50.576;8.568;2023-02-01T02:59:50;14.02;;;7.62;;
44304;SDS011;30019;50.576;8.568;2023-02-01T03:02:36;17.35;;;6.40;;
44304;SDS011;30019;50.576;8.568;2023-02-01T03:05:21;16.02;;;7.05;;
44304;SDS011;30019;50.576;8.568;2023-02-01T03:12:53;22.17;;;7.95;;
44304;SDS011;30019;50.576;8.568;2023-02-01T03:15:34;21.85;;;6.90;;
44304;SDS011;30019;50.576;8.568;2023-02-01T03:18:22;16.05;;;6.47;;
44304;SDS011;30019;50.576;8.568;2023-02-01T03:20:50;15.68;;;6.28;;
44304;SDS011;30019;50.576;8.568;2023-02-01T03:23:18;15.40;;;5.57;;
44304;SDS011;30019;50.576;8.568;2023-02-01T03:25:47;17.42;;;5.37;;
44304;SDS011;30019;50.576;8.568;2023-02-01T03:28:14;16.60;;;6.18;;
44304;SDS011;30019;50.576;8.568;2023-02-01T03:30:44;18.85;;;5.50;;
44304;SDS011;30019;50.576;8.568;2023-02-01T03:33:17;13.88;;;5.22;;
44304;SDS011;30019;50.576;8.568;2023-02-01T03:38:32;18.55;;;5.68;;
44304;SDS011;30019;50.576;8.568;2023-02-01T03:41:12;11.57;;;5.00;;
44304;SDS011;30019;50.576;8.568;2023-02-01T03:43:53;14.80;;;4.18;;
44304;SDS011;30019;50.576;8.568;2023-02-01T03:46:39;18.02;;;4.55;;
44304;SDS011;30019;50.576;8.568;2023-02-01T03:49:17;14.65;;;5.28;;
44304;SDS011;30019;50.576;8.568;2023-02-01T03:51:49;13.00;;;3.60;;
44304;SDS011;30019;50.576;8.568;2023-02-01T03:54:17;20.33;;;5.07;;
44304;SDS011;30019;50.576;8.568;2023-02-01T03:56:44;18.83;;;4.07;;
44304;SDS011;30019;50.576;8.568;2023-02-01T03:59:12;16.67;;;3.55;;
44304;SDS011;30019;50.576;8.568;2023-02-01T04:01:38;14.57;;;3.08;;
44304;SDS011;30019;50.576;8.568;2023-02-01T04:04:05;18.80;;;4.70;;
44304;SDS011;30019;50.576;8.568;2023-02-01T04:06:31;14.07;;;3.92;;
44304;SDS011;30019;50.576;8.568;2023-02-01T04:08:56;16.50;;;4.43;;
44304;SDS011;30019;50.576;8.568;2023-02-01T04:11:22;18.27;;;3.90;;
44304;SDS011;30019;50.576;8.568;2023-02-01T04:13:47;17.62;;;3.90;;
44304;SDS011;30019;50.576;8.568;2023-02-01T04:16:13;19.55;;;4.25;;
44304;SDS011;30019;50.576;8.568;2023-02-01T04:18:39;18.12;;;4.22;;
44304;SDS011;30019;50.576;8.568;2023-02-01T04:21:04;18.80;;;4.15;;
44304;SDS011;30019;50.576;8.568;2023-02-01T04:23:30;13.18;;;3.90;;
44304;SDS011;30019;50.576;8.568;2023-02-01T04:26:00;15.18;;;3.90;;
44304;SDS011;30019;50.576;8.568;2023-02-01T04:28:27;17.45;;;4.43;;
44304;SDS011;30019;50.576;8.568;2023-02-01T04:30:53;20.33;;;3.67;;
44304;SDS011;30019;50.576;8.568;2023-02-01T04:33:19;23.62;;;6.30;;
44304;SDS011;30019;50.576;8.568;2023-02-01T04:35:44;18.95;;;3.80;;
44304;SDS011;30019;50.576;8.568;2023-02-01T04:38:10;16.35;;;3.62;;
44304;SDS011;30019;50.576;8.568;2023-02-01T04:40:35;12.73;;;3.53;;
44304;SDS011;30019;50.576;8.568;2023-02-01T04:43:02;19.62;;;3.70;;
44304;SDS011;30019;50.576;8.568;2023-02-01T04:45:29;17.23;;;3.80;;
44304;SDS011;30019;50.576;8.568;2023-02-01T04:47:55;22.90;;;4.10;;
44304;SDS011;30019;50.576;8.568;2023-02-01T04:50:20;19.30;;;3.95;;
44304;SDS011;30019;50.576;8.568;2023-02-01T04:52:46;18.85;;;4.35;;
44304;SDS011;30019;50.576;8.568;2023-02-01T04:55:12;17.35;;;4.25;;
44304;SDS011;30019;50.576;8.568;2023-02-01T04:57:38;18.42;;;3.97;;
44304;SDS011;30019;50.576;8.568;2023-02-01T05:00:06;28.35;;;5.60;;
44304;SDS011;30019;50.576;8.568;2023-02-01T05:02:33;20.92;;;4.32;;
44304;SDS011;30019;50.576;8.568;2023-02-01T05:04:58;18.58;;;4.82;;
44304;SDS011;30019;50.576;8.568;2023-02-01T05:07:24;18.23;;;4.05;;
44304;SDS011;30019;50.576;8.568;2023-02-01T05:09:49;18.80;;;5.07;;
44304;SDS011;30019;50.576;8.568;2023-02-01T05:12:15;24.20;;;5.70;;
44304;SDS011;30019;50.576;8.568;2023-02-01T05:17:25;20.73;;;4.32;;
44304;SDS011;30019;50.576;8.568;2023-02-01T05:19:51;24.17;;;4.87;;
44304;SDS011;30019;50.576;8.568;2023-02-01T05:22:16;22.87;;;4.20;;
44304;SDS011;30019;50.576;8.568;2023-02-01T05:24:42;21.12;;;4.65;;
44304;SDS011;30019;50.576;8.568;2023-02-01T05:27:09;16.10;;;3.97;;
44304;SDS011;30019;50.576;8.568;2023-02-01T05:29:34;22.95;;;4.75;;
44304;SDS011;30019;50.576;8.568;2023-02-01T05:32:00;23.80;;;5.15;;
44304;SDS011;30019;50.576;8.568;2023-02-01T05:34:26;23.17;;;5.05;;
44304;SDS011;30019;50.576;8.568;2023-02-01T05:36:51;12.50;;;3.50;;
44304;SDS011;30019;50.576;8.568;2023-02-01T05:39:17;23.20;;;5.03;;
44304;SDS011;30019;50.576;8.568;2023-02-01T05:41:42;24.63;;;5.72;;
44304;SDS011;30019;50.576;8.568;2023-02-01T05:44:09;23.38;;;6.03;;
44304;SDS011;30019;50.576;8.568;2023-02-01T05:46:35;16.92;;;3.90;;
44304;SDS011;30019;50.576;8.568;2023-02-01T05:49:01;23.87;;;4.78;;
44304;SDS011;30019;50.576;8.568;2023-02-01T05:51:26;24.75;;;4.53;;
44304;SDS011;30019;50.576;8.568;2023-02-01T05:53:52;18.33;;;5.03;;
44304;SDS011;30019;50.576;8.568;2023-02-01T05:56:17;19.27;;;4.30;;
44304;SDS011;30019;50.576;8.568;2023-02-01T05:58:43;16.30;;;4.30;;
44304;SDS011;30019;50.576;8.568;2023-02-01T06:01:09;21.65;;;5.85;;
44304;SDS011;30019;50.576;8.568;2023-02-01T06:03:34;16.27;;;5.55;;
44304;SDS011;30019;50.576;8.568;2023-02-01T06:06:00;24.43;;;5.50;;
44304;SDS011;30019;50.576;8.568;2023-02-01T06:08:27;28.73;;;5.60;;
44304;SDS011;30019;50.576;8.568;2023-02-01T06:10:59;25.83;;;5.05;;
44304;SDS011;30019;50.576;8.568;2023-02-01T06:13:26;19.12;;;5.28;;
44304;SDS011;30019;50.576;8.568;2023-02-01T06:15:52;18.87;;;5.60;;
44304;SDS011;30019;50.576;8.568;2023-02-01T06:18:17;21.35;;;4.50;;
44304;SDS011;30019;50.576;8.568;2023-02-01T06:20:43;19.48;;;4.90;;
44304;SDS011;30019;50.576;8.568;2023-02-01T06:23:09;24.77;;;4.75;;
44304;SDS011;30019;50.576;8.568;2023-02-01T06:25:34;28.48;;;5.60;;
44304;SDS011;30019;50.576;8.568;2023-02-01T06:28:00;18.52;;;4.30;;
44304;SDS011;30019;50.576;8.568;2023-02-01T06:30:26;19.50;;;5.62;;
44304;SDS011;30019;50.576;8.568;2023-02-01T06:32:52;19.08;;;4.97;;
44304;SDS011;30019;50.576;8.568;2023-02-01T06:35:18;18.98;;;4.65;;
44304;SDS011;30019;50.576;8.568;2023-02-01T06:37:44;19.33;;;4.28;;
44304;SDS011;30019;50.576;8.568;2023-02-01T06:40:10;18.25;;;4.68;;
44304;SDS011;30019;50.576;8.568;2023-02-01T06:42:36;19.15;;;4.32;;
44304;SDS011;30019;50.576;8.568;2023-02-01T06:45:02;24.33;;;4.20;;
44304;SDS011;30019;50.576;8.568;2023-02-01T06:47:27;20.45;;;4.60;;
44304;SDS011;30019;50.576;8.568;2023-02-01T06:49:53;21.77;;;4.47;;
44304;SDS011;30019;50.576;8.568;2023-02-01T06:52:19;17.20;;;4.75;;
44304;SDS011;30019;50.576;8.568;2023-02-01T06:54:44;20.65;;;5.22;;
44304;SDS011;30019;50.576;8.568;2023-02-01T06:57:10;19.40;;;4.68;;
44304;SDS011;30019;50.576;8.568;2023-02-01T06:59:35;22.77;;;4.80;;
44304;SDS011;30019;50.576;8.568;2023-02-01T07:02:01;22.23;;;4.37;;
44304;SDS011;30019;50.576;8.568;2023-02-01T07:04:27;22.52;;;5.10;;
44304;SDS011;30019;50.576;8.568;2023-02-01T07:06:52;19.02;;;3.80;;
44304;SDS011;30019;50.576;8.568;2023-02-01T07:09:18;25.15;;;5.07;;
44304;SDS011;30019;50.576;8.568;2023-02-01T07:11:44;26.40;;;5.18;;
44304;SDS011;30019;50.576;8.568;2023-02-01T07:14:10;14.98;;;3.87;;
44304;SDS011;30019;50.576;8.568;2023-02-01T07:16:36;21.23;;;5.12;;
44304;SDS011;30019;50.576;8.568;2023-02-01T07:19:01;15.05;;;4.62;;
44304;SDS011;30019;50.576;8.568;2023-02-01T07:21:27;25.00;;;4.57;;
44304;SDS011;30019;50.576;8.568;2023-02-01T07:23:53;25.50;;;4.80;;
44304;SDS011;30019;50.576;8.568;2023-02-01T07:26:19;19.35;;;4.60;;
44304;SDS011;30019;50.576;8.568;2023-02-01T07:28:45;24.80;;;4.70;;
44304;SDS011;30019;50.576;8.568;2023-02-01T07:31:13;23.83;;;5.87;;
44304;SDS011;30019;50.576;8.568;2023-02-01T07:33:46;21.58;;;5.40;;
44304;SDS011;30019;50.576;8.568;2023-02-01T07:36:14;21.52;;;4.47;;
44304;SDS011;30019;50.576;8.568;2023-02-01T07:38:41;21.10;;;4.85;;
44304;SDS011;30019;50.576;8.568;2023-02-01T07:41:07;22.92;;;4.55;;
44304;SDS011;30019;50.576;8.568;2023-02-01T07:43:33;21.85;;;4.30;;
44304;SDS011;30019;50.576;8.568;2023-02-01T07:45:59;25.27;;;6.40;;
44304;SDS011;30019;50.576;8.568;2023-02-01T07:48:26;15.10;;;3.62;;
44304;SDS011;30019;50.576;8.568;2023-02-01T07:53:50;15.55;;;4.15;;
44304;SDS011;30019;50.576;8.568;2023-02-01T07:56:16;17.67;;;4.37;;
44304;SDS011;30019;50.576;8.568;2023-02-01T07:58:47;18.17;;;4.35;;
44304;SDS011;30019;50.576;8.568;2023-02-01T08:01:20;19.73;;;4.93;;
44304;SDS011;30019;50.576;8.568;2023-02-01T08:03:51;23.02;;;4.72;;
44304;SDS011;30019;50.576;8.568;2023-02-01T08:06:18;24.25;;;4.45;;
44304;SDS011;30019;50.576;8.568;2023-02-01T08:08:44;20.08;;;3.80;;
44304;SDS011;30019;50.576;8.568;2023-02-01T08:11:12;23.30;;;4.65;;
44304;SDS011;30019;50.576;8.568;2023-02-01T08:13:38;22.62;;;5.07;;
44304;SDS011;30019;50.576;8.568;2023-02-01T08:16:05;19.77;;;3.83;;
44304;SDS011;30019;50.576;8.568;2023-02-01T08:18:32;21.23;;;4.55;;
44304;SDS011;30019;50.576;8.568;2023-02-01T08:21:02;16.87;;;4.25;;
44304;SDS011;30019;50.576;8.568;2023-02-01T08:23:49;21.52;;;5.32;;
44304;SDS011;30019;50.576;8.568;2023-02-01T08:26:16;17.30;;;4.93;;
44304;SDS011;30019;50.576;8.568;2023-02-01T08:28:45;20.55;;;5.12;;
44304;SDS011;30019;50.576;8.568;2023-02-01T08:31:12;24.90;;;5.28;;
44304;SDS011;30019;50.576;8.568;2023-02-01T08:33:40;19.98;;;4.82;;
44304;SDS011;30019;50.576;8.568;2023-02-01T08:36:07;17.77;;;4.45;;
44304;SDS011;30019;50.576;8.568;2023-02-01T08:38:37;24.02;;;3.90;;
44304;SDS011;30019;50.576;8.568;2023-02-01T08:41:07;22.77;;;4.82;;
44304;SDS011;30019;50.576;8.568;2023-02-01T08:43:35;22.42;;;5.57;;
44304;SDS011;30019;50.576;8.568;2023-02-01T08:46:01;21.60;;;4.32;;
44304;SDS011;30019;50.576;8.568;2023-02-01T08:48:27;17.77;;;4.35;;
44304;SDS011;30019;50.576;8.568;2023-02-01T08:50:52;19.33;;;4.72;;
44304;SDS011;30019;50.576;8.568;2023-02-01T08:53:18;16.95;;;4.70;;
44304;SDS011;30019;50.576;8.568;2023-02-01T08:55:45;22.35;;;4.90;;
44304;SDS011;30019;50.576;8.568;2023-02-01T08:58:11;20.85;;;4.65;;
44304;SDS011;30019;50.576;8.568;2023-02-01T09:00:39;23.52;;;6.00;;
44304;SDS011;30019;50.576;8.568;2023-02-01T09:03:05;16.83;;;4.50;;
44304;SDS011;30019;50.576;8.568;2023-02-01T09:05:34;26.40;;;5.72;;
44304;SDS011;30019;50.576;8.568;2023-02-01T09:07:59;23.12;;;4.47;;
44304;SDS011;30019;50.576;8.568;2023-02-01T09:10:25;28.80;;;6.65;;
44304;SDS011;30019;50.576;8.568;2023-02-01T09:12:51;21.60;;;4.47;;
44304;SDS011;30019;50.576;8.568;2023-02-01T09:15:17;25.27;;;4.85;;
44304;SDS011;30019;50.576;8.568;2023-02-01T09:17:42;27.52;;;4.75;;
44304;SDS011;30019;50.576;8.568;2023-02-01T09:20:08;23.45;;;5.22;;
44304;SDS011;30019;50.576;8.568;2023-02-01T09:22:34;25.52;;;4.30;;
44304;SDS011;30019;50.576;8.568;2023-02-01T09:25:00;22.33;;;4.87;;
44304;SDS011;30019;50.576;8.568;2023-02-01T09:27:25;22.25;;;4.70;;
44304;SDS011;30019;50.576;8.568;2023-02-01T09:29:51;23.90;;;4.60;;
44304;SDS011;30019;50.576;8.568;2023-02-01T09:32:21;20.95;;;4.32;;
44304;SDS011;30019;50.576;8.568;2023-02-01T09:34:48;26.83;;;4.55;;
44304;SDS011;30019;50.576;8.568;2023-02-01T09:37:14;22.20;;;4.75;;
44304;SDS011;30019;50.576;8.568;2023-02-01T09:39:40;22.95;;;4.40;;
44304;SDS011;30019;50.576;8.568;2023-02-01T09:45:20;17.00;;;4.30;;
44304;SDS011;30019;50.576;8.568;2023-02-01T09:47:56;18.95;;;4.55;;
44304;SDS011;30019;50.576;8.568;2023-02-01T09:50:30;23.77;;;4.72;;
44304;SDS011;30019;50.576;8.568;2023-02-01T09:53:04;14.57;;;4.18;;
44304;SDS011;30019;50.576;8.568;2023-02-01T09:55:42;23.08;;;4.97;;
44304;SDS011;30019;50.576;8.568;2023-02-01T10:00:54;22.25;;;4.53;;
44304;SDS011;30019;50.576;8.568;2023-02-01T10:03:23;19.25;;;4.00;;
44304;SDS011;30019;50.576;8.568;2023-02-01T10:08:54;20.95;;;4.72;;
44304;SDS011;30019;50.576;8.568;2023-02-01T10:11:50;33.80;;;6.50;;
44304;SDS011;30019;50.576;8.568;2023-02-01T10:20:12;27.92;;;5.50;;
44304;SDS011;30019;50.576;8.568;2023-02-01T10:28:15;19.05;;;4.78;;
44304;SDS011;30019;50.576;8.568;2023-02-01T10:30:43;24.70;;;4.75;;
44304;SDS011;30019;50.576;8.568;2023-02-01T10:33:18;21.77;;;5.12;;
44304;SDS011;30019;50.576;8.568;2023-02-01T10:35:52;25.73;;;4.97;;
44304;SDS011;30019;50.576;8.568;2023-02-01T10:38:27;19.83;;;4.30;;
44304;SDS011;30019;50.576;8.568;2023-02-01T10:40:55;23.98;;;5.05;;
44304;SDS011;30019;50.576;8.568;2023-02-01T10:43:41;20.90;;;3.67;;
44304;SDS011;30019;50.576;8.568;2023-02-01T10:46:08;24.70;;;4.35;;
44304;SDS011;30019;50.576;8.568;2023-02-01T10:48:34;18.12;;;4.20;;
44304;SDS011;30019;50.576;8.568;2023-02-01T10:51:02;15.07;;;3.90;;
44304;SDS011;30019;50.576;8.568;2023-02-01T10:53:42;18.48;;;4.10;;
44304;SDS011;30019;50.576;8.568;2023-02-01T10:56:24;24.25;;;5.25;;
44304;SDS011;30019;50.576;8.568;2023-02-01T10:58:51;14.70;;;4.30;;
44304;SDS011;30019;50.576;8.568;2023-02-01T11:01:28;28.42;;;4.12;;
44304;SDS011;30019;50.576;8.568;2023-02-01T11:04:01;18.70;;;3.92;;
44304;SDS011;30019;50.576;8.568;2023-02-01T11:06:28;21.92;;;4.78;;
44304;SDS011;30019;50.576;8.568;2023-02-01T11:11:30;16.48;;;4.05;;
44304;SDS011;30019;50.576;8.568;2023-02-01T11:14:00;17.15;;;3.60;;
44304;SDS011;30019;50.576;8.568;2023-02-01T11:16:38;19.30;;;4.37;;
44304;SDS011;30019;50.576;8.568;2023-02-01T11:19:04;20.08;;;4.70;;
44304;SDS011;30019;50.576;8.568;2023-02-01T11:21:30;18.23;;;3.95;;
44304;SDS011;30019;50.576;8.568;2023-02-01T11:24:00;13.85;;;3.37;;
44304;SDS011;30019;50.576;8.568;2023-02-01T11:26:28;14.75;;;4.55;;
44304;SDS011;30019;50.576;8.568;2023-02-01T11:28:59;25.90;;;4.28;;
44304;SDS011;30019;50.576;8.568;2023-02-01T11:31:28;19.23;;;4.15;;
44304;SDS011;30019;50.576;8.568;2023-02-01T11:34:05;19.20;;;3.87;;
44304;SDS011;30019;50.576;8.568;2023-02-01T11:36:36;13.85;;;3.90;;
44304;SDS011;30019;50.576;8.568;2023-02-01T11:39:07;25.45;;;4.80;;
44304;SDS011;30019;50.576;8.568;2023-02-01T11:41:44;21.35;;;4.55;;
44304;SDS011;30019;50.576;8.568;2023-02-01T11:44:35;17.02;;;4.18;;
44304;SDS011;30019;50.576;8.568;2023-02-01T11:47:16;22.80;;;5.07;;
44304;SDS011;30019;50.576;8.568;2023-02-01T11:49:48;22.58;;;4.25;;
44304;SDS011;30019;50.576;8.568;2023-02-01T11:52:35;21.67;;;4.00;;
44304;SDS011;30019;50.576;8.568;2023-02-01T12:09:22;18.35;;;3.30;;
44304;SDS011;30019;50.576;8.568;2023-02-01T12:14:33;22.50;;;3.85;;
44304;SDS011;30019;50.576;8.568;2023-02-01T12:20:26;15.43;;;3.47;;
44304;SDS011;30019;50.576;8.568;2023-02-01T12:23:16;16.08;;;4.43;;
44304;SDS011;30019;50.576;8.568;2023-02-01T12:26:22;14.97;;;3.47;;
44304;SDS011;30019;50.576;8.568;2023-02-01T12:28:46;19.10;;;3.20;;
44304;SDS011;30019;50.576;8.568;2023-02-01T12:37:06;16.30;;;4.45;;
44304;SDS011;30019;50.576;8.568;2023-02-01T12:42:29;16.10;;;3.00;;
44304;SDS011;30019;50.576;8.568;2023-02-01T12:45:01;12.27;;;2.62;;
44304;SDS011;30019;50.576;8.568;2023-02-01T12:47:47;17.98;;;3.60;;
44304;SDS011;30019;50.576;8.568;2023-02-01T12:50:45;21.58;;;2.97;;
44304;SDS011;30019;50.576;8.568;2023-02-01T12:53:17;17.60;;;3.00;;
44304;SDS011;30019;50.576;8.568;2023-02-01T12:55:55;21.67;;;6.93;;
44304;SDS011;30019;50.576;8.568;2023-02-01T13:09:45;17.10;;;3.50;;
44304;SDS011;30019;50.576;8.568;2023-02-01T13:12:15;16.40;;;3.60;;
44304;SDS011;30019;50.576;8.568;2023-02-01T13:15:09;16.27;;;2.65;;
44304;SDS011;30019;50.576;8.568;2023-02-01T13:17:39;15.07;;;3.03;;
44304;SDS011;30019;50.576;8.568;2023-02-01T13:20:13;15.20;;;3.58;;
44304;SDS011;30019;50.576;8.568;2023-02-01T13:22:58;13.73;;;3.20;;
44304;SDS011;30019;50.576;8.568;2023-02-01T13:25:50;13.90;;;3.62;;
44304;SDS011;30019;50.576;8.568;2023-02-01T13:28:26;15.15;;;3.47;;
44304;SDS011;30019;50.576;8.568;2023-02-01T13:31:20;13.65;;;4.00;;
44304;SDS011;30019;50.576;8.568;2023-02-01T13:36:24;24.40;;;4.30;;
44304;SDS011;30019;50.576;8.568;2023-02-01T13:39:23;12.65;;;3.35;;
44304;SDS011;30019;50.576;8.568;2023-02-01T13:44:50;14.00;;;3.30;;
44304;SDS011;30019;50.576;8.568;2023-02-01T13:50:13;13.62;;;3.10;;
44304;SDS011;30019;50.576;8.568;2023-02-01T13:52:45;11.73;;;2.75;;
44304;SDS011;30019;50.576;8.568;2023-02-01T13:57:48;20.00;;;3.87;;
44304;SDS011;30019;50.576;8.568;2023-02-01T14:13:34;10.98;;;3.20;;
44304;SDS011;30019;50.576;8.568;2023-02-01T14:29:03;12.32;;;3.28;;
44304;SDS011;30019;50.576;8.568;2023-02-01T14:34:18;9.05;;;2.87;;
44304;SDS011;30019;50.576;8.568;2023-02-01T14:36:53;18.45;;;2.87;;
44304;SDS011;30019;50.576;8.568;2023-02-01T14:42:12;14.43;;;3.00;;
44304;SDS011;30019;50.576;8.568;2023-02-01T14:47:44;12.60;;;3.28;;
44304;SDS011;30019;50.576;8.568;2023-02-01T15:01:15;9.63;;;3.08;;
44304;SDS011;30019;50.576;8.568;2023-02-01T15:08:53;12.35;;;3.10;;
44304;SDS011;30019;50.576;8.568;2023-02-01T15:11:22;26.48;;;5.55;;
44304;SDS011;30019;50.576;8.568;2023-02-01T15:13:49;14.95;;;3.10;;
44304;SDS011;30019;50.576;8.568;2023-02-01T15:16:16;11.10;;;3.30;;
44304;SDS011;30019;50.576;8.568;2023-02-01T15:18:42;14.05;;;4.10;;
44304;SDS011;30019;50.576;8.568;2023-02-01T15:21:15;16.05;;;3.92;;
44304;SDS011;30019;50.576;8.568;2023-02-01T15:23:46;15.82;;;3.45;;
44304;SDS011;30019;50.576;8.568;2023-02-01T15:26:29;13.10;;;3.75;;
44304;SDS011;30019;50.576;8.568;2023-02-01T15:28:57;20.33;;;4.05;;
44304;SDS011;30019;50.576;8.568;2023-02-01T15:31:33;17.90;;;3.92;;
44304;SDS011;30019;50.576;8.568;2023-02-01T15:34:01;16.52;;;3.67;;
44304;SDS011;30019;50.576;8.568;2023-02-01T15:36:26;17.58;;;3.62;;
44304;SDS011;30019;50.576;8.568;2023-02-01T15:44:28;18.30;;;3.43;;
44304;SDS011;30019;50.576;8.568;2023-02-01T15:46:59;20.77;;;3.92;;
44304;SDS011;30019;50.576;8.568;2023-02-01T15:49:31;18.20;;;3.58;;
44304;SDS011;30019;50.576;8.568;2023-02-01T15:52:01;21.55;;;4.78;;
44304;SDS011;30019;50.576;8.568;2023-02-01T15:54:29;17.20;;;3.42;;
44304;SDS011;30019;50.576;8.568;2023-02-01T15:56:58;22.73;;;4.82;;
44304;SDS011;30019;50.576;8.568;2023-02-01T15:59:45;22.33;;;5.22;;
44304;SDS011;30019;50.576;8.568;2023-02-01T16:02:27;23.27;;;5.45;;
44304;SDS011;30019;50.576;8.568;2023-02-01T16:04:58;17.70;;;3.55;;
44304;SDS011;30019;50.576;8.568;2023-02-01T16:07:27;14.38;;;3.42;;
44304;SDS011;30019;50.576;8.568;2023-02-01T16:09:58;16.95;;;3.62;;
44304;SDS011;30019;50.576;8.568;2023-02-01T16:12:33;21.75;;;4.35;;
44304;SDS011;30019;50.576;8.568;2023-02-01T16:15:10;24.40;;;4.60;;
44304;SDS011;30019;50.576;8.568;2023-02-01T16:17:36;24.23;;;5.60;;
44304;SDS011;30019;50.576;8.568;2023-02-01T16:20:01;21.70;;;4.55;;
44304;SDS011;30019;50.576;8.568;2023-02-01T16:22:27;24.27;;;5.03;;
44304;SDS011;30019;50.576;8.568;2023-02-01T16:24:53;17.52;;;3.45;;
44304;SDS011;30019;50.576;8.568;2023-02-01T16:27:18;18.40;;;4.03;;
44304;SDS011;30019;50.576;8.568;2023-02-01T16:29:45;18.50;;;4.80;;
44304;SDS011;30019;50.576;8.568;2023-02-01T16:32:16;17.98;;;5.00;;
44304;SDS011;30019;50.576;8.568;2023-02-01T16:34:44;18.02;;;3.83;;
44304;SDS011;30019;50.576;8.568;2023-02-01T16:37:19;16.75;;;4.40;;
44304;SDS011;30019;50.576;8.568;2023-02-01T16:39:46;15.27;;;3.78;;
44304;SDS011;30019;50.576;8.568;2023-02-01T16:42:12;16.17;;;3.83;;
44304;SDS011;30019;50.576;8.568;2023-02-01T16:44:39;25.40;;;3.97;;
44304;SDS011;30019;50.576;8.568;2023-02-01T16:47:11;17.92;;;3.92;;
44304;SDS011;30019;50.576;8.568;2023-02-01T16:49:42;21.40;;;4.30;;
44304;SDS011;30019;50.576;8.568;2023-02-01T16:52:13;20.15;;;4.00;;
44304;SDS011;30019;50.576;8.568;2023-02-01T16:54:42;18.33;;;3.85;;
44304;SDS011;30019;50.576;8.568;2023-02-01T16:57:11;26.45;;;5.00;;
44304;SDS011;30019;50.576;8.568;2023-02-01T16:59:38;22.10;;;3.80;;
44304;SDS011;30019;50.576;8.568;2023-02-01T17:02:04;17.77;;;3.75;;
44304;SDS011;30019;50.576;8.568;2023-02-01T17:04:30;24.05;;;4.40;;
44304;SDS011;30019;50.576;8.568;2023-02-01T17:06:55;14.00;;;2.85;;
44304;SDS011;30019;50.576;8.568;2023-02-01T17:09:23;13.05;;;5.50;;
44304;SDS011;30019;50.576;8.568;2023-02-01T17:11:50;14.63;;;3.33;;
44304;SDS011;30019;50.576;8.568;2023-02-01T17:14:17;20.58;;;3.55;;
44304;SDS011;30019;50.576;8.568;2023-02-01T17:16:45;17.20;;;4.45;;
44304;SDS011;30019;50.576;8.568;2023-02-01T17:19:13;23.17;;;4.82;;
44304;SDS011;30019;50.576;8.568;2023-02-01T17:21:46;9.77;;;2.92;;
44304;SDS011;30019;50.576;8.568;2023-02-01T17:24:14;17.65;;;3.62;;
44304;SDS011;30019;50.576;8.568;2023-02-01T17:26:42;13.57;;;3.20;;
44304;SDS011;30019;50.576;8.568;2023-02-01T17:29:08;19.62;;;3.90;;
44304;SDS011;30019;50.576;8.568;2023-02-01T17:31:44;19.45;;;4.18;;
44304;SDS011;30019;50.576;8.568;2023-02-01T17:34:13;19.87;;;4.25;;